sensor_id;sensor_type;location;lat;lon;timestamp;P1;durP1;ratioP1;P2;durP2;ratioP2
19971;SDS011;10147;16.402;102.848;2023-07-28T00:00:34;10.40;;;8.25;;
19971;SDS011;10147;16.402;102.848;2023-07-28T00:03:04;17.90;;;16.27;;
19971;SDS011;10147;16.402;102.848;2023-07-28T00:05:35;10.32;;;7.85;;
19971;SDS011;10147;16.402;102.848;2023-07-28T00:08:06;20.13;;;8.05;;
19971;SDS011;10147;16.402;102.848;2023-07-28T00:10:42;10.60;;;8.38;;
19971;SDS011;10147;16.402;102.848;2023-07-28T00:13:12;10.27;;;7.93;;
19971;SDS011;10147;16.402;102.848;2023-07-28T00:15:41;10.43;;;7.57;;
19971;SDS011;10147;16.402;102.848;2023-07-28T00:18:11;14.55;;;7.97;;
19971;SDS011;10147;16.402;102.848;2023-07-28T00:20:41;11.50;;;7.55;;
19971;SDS011;10147;16.402;102.848;2023-07-28T00:23:11;9.95;;;8.52;;
19971;SDS011;10147;16.402;102.848;2023-07-28T00:25:41;13.95;;;8.60;;
19971;SDS011;10147;16.402;102.848;2023-07-28T00:28:11;11.68;;;8.13;;
19971;SDS011;10147;16.402;102.848;2023-07-28T00:30:42;12.85;;;8.43;;
19971;SDS011;10147;16.402;102.848;2023-07-28T00:33:13;11.95;;;8.93;;
19971;SDS011;10147;16.402;102.848;2023-07-28T00:35:43;11.88;;;8.50;;
19971;SDS011;10147;16.402;102.848;2023-07-28T00:38:13;13.38;;;7.93;;
19971;SDS011;10147;16.402;102.848;2023-07-28T00:40:43;11.60;;;8.07;;
19971;SDS011;10147;16.402;102.848;2023-07-28T00:43:13;8.80;;;6.88;;
19971;SDS011;10147;16.402;102.848;2023-07-28T00:45:43;14.57;;;7.22;;
19971;SDS011;10147;16.402;102.848;2023-07-28T00:48:13;15.55;;;13.98;;
19971;SDS011;10147;16.402;102.848;2023-07-28T00:50:44;16.00;;;13.68;;
19971;SDS011;10147;16.402;102.848;2023-07-28T00:53:16;14.90;;;12.43;;
19971;SDS011;10147;16.402;102.848;2023-07-28T00:55:46;10.32;;;8.40;;
19971;SDS011;10147;16.402;102.848;2023-07-28T00:58:17;10.30;;;8.43;;
19971;SDS011;10147;16.402;102.848;2023-07-28T01:00:48;10.13;;;8.13;;
19971;SDS011;10147;16.402;102.848;2023-07-28T01:03:18;10.70;;;7.38;;
19971;SDS011;10147;16.402;102.848;2023-07-28T01:05:52;11.10;;;8.15;;
19971;SDS011;10147;16.402;102.848;2023-07-28T01:11:52;16.10;;;14.18;;
19971;SDS011;10147;16.402;102.848;2023-07-28T01:14:26;13.32;;;12.02;;
19971;SDS011;10147;16.402;102.848;2023-07-28T01:16:56;13.52;;;8.23;;
19971;SDS011;10147;16.402;102.848;2023-07-28T01:19:26;9.77;;;8.02;;
19971;SDS011;10147;16.402;102.848;2023-07-28T01:25:14;12.52;;;10.10;;
19971;SDS011;10147;16.402;102.848;2023-07-28T01:28:05;11.70;;;7.43;;
19971;SDS011;10147;16.402;102.848;2023-07-28T01:30:36;18.25;;;15.23;;
19971;SDS011;10147;16.402;102.848;2023-07-28T01:33:06;14.90;;;9.20;;
19971;SDS011;10147;16.402;102.848;2023-07-28T01:35:37;14.38;;;8.48;;
19971;SDS011;10147;16.402;102.848;2023-07-28T01:38:07;11.70;;;7.82;;
19971;SDS011;10147;16.402;102.848;2023-07-28T01:40:36;11.65;;;7.45;;
19971;SDS011;10147;16.402;102.848;2023-07-28T01:43:07;8.32;;;7.03;;
19971;SDS011;10147;16.402;102.848;2023-07-28T01:45:36;12.18;;;7.57;;
19971;SDS011;10147;16.402;102.848;2023-07-28T01:48:07;12.48;;;7.68;;
19971;SDS011;10147;16.402;102.848;2023-07-28T01:50:40;14.10;;;7.60;;
19971;SDS011;10147;16.402;102.848;2023-07-28T01:53:09;10.65;;;7.32;;
19971;SDS011;10147;16.402;102.848;2023-07-28T01:55:39;8.98;;;7.20;;
19971;SDS011;10147;16.402;102.848;2023-07-28T01:58:09;11.07;;;7.90;;
19971;SDS011;10147;16.402;102.848;2023-07-28T02:00:40;12.52;;;7.72;;
19971;SDS011;10147;16.402;102.848;2023-07-28T02:03:10;10.38;;;7.07;;
19971;SDS011;10147;16.402;102.848;2023-07-28T02:05:40;10.63;;;6.72;;
19971;SDS011;10147;16.402;102.848;2023-07-28T02:08:10;9.65;;;6.93;;
19971;SDS011;10147;16.402;102.848;2023-07-28T02:10:40;9.35;;;6.80;;
19971;SDS011;10147;16.402;102.848;2023-07-28T02:13:11;10.02;;;7.47;;
19971;SDS011;10147;16.402;102.848;2023-07-28T02:15:41;7.97;;;7.20;;
19971;SDS011;10147;16.402;102.848;2023-07-28T02:18:11;14.82;;;7.60;;
19971;SDS011;10147;16.402;102.848;2023-07-28T02:20:41;12.65;;;11.38;;
19971;SDS011;10147;16.402;102.848;2023-07-28T02:23:11;9.95;;;7.85;;
19971;SDS011;10147;16.402;102.848;2023-07-28T02:25:42;9.27;;;7.38;;
19971;SDS011;10147;16.402;102.848;2023-07-28T02:28:12;9.23;;;7.40;;
19971;SDS011;10147;16.402;102.848;2023-07-28T02:30:42;15.18;;;8.23;;
19971;SDS011;10147;16.402;102.848;2023-07-28T02:33:12;10.82;;;8.60;;
19971;SDS011;10147;16.402;102.848;2023-07-28T02:35:42;10.35;;;7.47;;
19971;SDS011;10147;16.402;102.848;2023-07-28T02:38:11;15.80;;;11.13;;
19971;SDS011;10147;16.402;102.848;2023-07-28T02:40:42;14.25;;;9.73;;
19971;SDS011;10147;16.402;102.848;2023-07-28T02:43:12;10.98;;;7.20;;
19971;SDS011;10147;16.402;102.848;2023-07-28T02:45:42;9.88;;;7.15;;
19971;SDS011;10147;16.402;102.848;2023-07-28T02:48:12;11.50;;;7.57;;
19971;SDS011;10147;16.402;102.848;2023-07-28T02:50:45;9.15;;;6.47;;
19971;SDS011;10147;16.402;102.848;2023-07-28T02:53:16;10.57;;;6.55;;
19971;SDS011;10147;16.402;102.848;2023-07-28T02:55:46;10.52;;;6.75;;
19971;SDS011;10147;16.402;102.848;2023-07-28T02:58:17;8.85;;;6.35;;
19971;SDS011;10147;16.402;102.848;2023-07-28T03:00:47;9.52;;;6.20;;
19971;SDS011;10147;16.402;102.848;2023-07-28T03:03:21;14.23;;;5.22;;
19971;SDS011;10147;16.402;102.848;2023-07-28T03:05:52;6.18;;;5.65;;
19971;SDS011;10147;16.402;102.848;2023-07-28T03:08:25;9.57;;;5.90;;
19971;SDS011;10147;16.402;102.848;2023-07-28T03:11:10;7.43;;;5.45;;
19971;SDS011;10147;16.402;102.848;2023-07-28T03:13:40;6.82;;;5.65;;
19971;SDS011;10147;16.402;102.848;2023-07-28T03:16:10;9.57;;;7.35;;
19971;SDS011;10147;16.402;102.848;2023-07-28T03:18:41;12.60;;;7.05;;
19971;SDS011;10147;16.402;102.848;2023-07-28T03:21:10;6.90;;;5.50;;
19971;SDS011;10147;16.402;102.848;2023-07-28T03:23:42;8.15;;;6.60;;
19971;SDS011;10147;16.402;102.848;2023-07-28T03:26:12;8.10;;;5.80;;
19971;SDS011;10147;16.402;102.848;2023-07-28T03:28:41;14.68;;;7.50;;
19971;SDS011;10147;16.402;102.848;2023-07-28T03:31:11;6.80;;;5.78;;
19971;SDS011;10147;16.402;102.848;2023-07-28T03:33:41;6.97;;;5.38;;
19971;SDS011;10147;16.402;102.848;2023-07-28T03:36:11;10.10;;;7.32;;
19971;SDS011;10147;16.402;102.848;2023-07-28T03:38:42;9.65;;;6.05;;
19971;SDS011;10147;16.402;102.848;2023-07-28T03:41:13;9.93;;;5.75;;
19971;SDS011;10147;16.402;102.848;2023-07-28T03:43:43;9.32;;;5.43;;
19971;SDS011;10147;16.402;102.848;2023-07-28T03:46:14;17.67;;;16.27;;
19971;SDS011;10147;16.402;102.848;2023-07-28T03:48:45;18.42;;;16.73;;
19971;SDS011;10147;16.402;102.848;2023-07-28T03:51:15;17.85;;;16.23;;
19971;SDS011;10147;16.402;102.848;2023-07-28T03:53:45;6.18;;;5.40;;
19971;SDS011;10147;16.402;102.848;2023-07-28T03:56:14;6.28;;;5.47;;
19971;SDS011;10147;16.402;102.848;2023-07-28T03:58:45;6.30;;;5.50;;
19971;SDS011;10147;16.402;102.848;2023-07-28T04:01:15;7.28;;;6.57;;
19971;SDS011;10147;16.402;102.848;2023-07-28T04:03:47;8.57;;;5.65;;
19971;SDS011;10147;16.402;102.848;2023-07-28T04:06:17;6.82;;;6.07;;
19971;SDS011;10147;16.402;102.848;2023-07-28T04:08:47;7.47;;;6.13;;
19971;SDS011;10147;16.402;102.848;2023-07-28T04:11:17;6.82;;;6.05;;
19971;SDS011;10147;16.402;102.848;2023-07-28T04:13:47;8.90;;;6.50;;
19971;SDS011;10147;16.402;102.848;2023-07-28T04:16:16;11.05;;;8.50;;
19971;SDS011;10147;16.402;102.848;2023-07-28T04:18:46;7.80;;;6.70;;
19971;SDS011;10147;16.402;102.848;2023-07-28T04:21:16;8.13;;;6.38;;
19971;SDS011;10147;16.402;102.848;2023-07-28T04:23:46;8.27;;;6.43;;
19971;SDS011;10147;16.402;102.848;2023-07-28T04:26:17;9.63;;;5.90;;
19971;SDS011;10147;16.402;102.848;2023-07-28T04:28:52;8.18;;;5.90;;
19971;SDS011;10147;16.402;102.848;2023-07-28T04:31:22;7.32;;;6.20;;
19971;SDS011;10147;16.402;102.848;2023-07-28T04:33:56;7.03;;;6.30;;
19971;SDS011;10147;16.402;102.848;2023-07-28T04:36:48;10.52;;;6.40;;
19971;SDS011;10147;16.402;102.848;2023-07-28T04:39:22;9.65;;;6.10;;
19971;SDS011;10147;16.402;102.848;2023-07-28T04:41:52;10.05;;;6.57;;
19971;SDS011;10147;16.402;102.848;2023-07-28T04:44:23;7.45;;;6.75;;
19971;SDS011;10147;16.402;102.848;2023-07-28T04:46:58;7.13;;;6.40;;
19971;SDS011;10147;16.402;102.848;2023-07-28T04:49:29;8.98;;;6.60;;
19971;SDS011;10147;16.402;102.848;2023-07-28T04:52:18;6.95;;;6.00;;
19971;SDS011;10147;16.402;102.848;2023-07-28T04:55:08;8.90;;;6.20;;
19971;SDS011;10147;16.402;102.848;2023-07-28T04:57:38;8.52;;;6.45;;
19971;SDS011;10147;16.402;102.848;2023-07-28T05:00:08;8.13;;;6.30;;
19971;SDS011;10147;16.402;102.848;2023-07-28T05:02:39;8.15;;;6.40;;
19971;SDS011;10147;16.402;102.848;2023-07-28T05:05:09;7.32;;;6.05;;
19971;SDS011;10147;16.402;102.848;2023-07-28T05:07:39;8.95;;;6.28;;
19971;SDS011;10147;16.402;102.848;2023-07-28T05:10:13;9.27;;;6.28;;
19971;SDS011;10147;16.402;102.848;2023-07-28T05:12:43;9.45;;;7.20;;
19971;SDS011;10147;16.402;102.848;2023-07-28T05:15:14;7.28;;;6.10;;
19971;SDS011;10147;16.402;102.848;2023-07-28T05:17:44;7.18;;;6.47;;
19971;SDS011;10147;16.402;102.848;2023-07-28T05:20:34;14.65;;;13.48;;
19971;SDS011;10147;16.402;102.848;2023-07-28T05:23:10;30.67;;;27.75;;
19971;SDS011;10147;16.402;102.848;2023-07-28T05:25:41;33.22;;;30.35;;
19971;SDS011;10147;16.402;102.848;2023-07-28T05:28:11;7.68;;;5.95;;
19971;SDS011;10147;16.402;102.848;2023-07-28T05:30:44;7.05;;;6.30;;
19971;SDS011;10147;16.402;102.848;2023-07-28T05:33:14;8.52;;;7.07;;
19971;SDS011;10147;16.402;102.848;2023-07-28T05:35:58;7.05;;;6.35;;
19971;SDS011;10147;16.402;102.848;2023-07-28T05:38:33;7.50;;;6.45;;
19971;SDS011;10147;16.402;102.848;2023-07-28T05:41:03;7.65;;;6.60;;
19971;SDS011;10147;16.402;102.848;2023-07-28T05:43:34;7.30;;;6.63;;
19971;SDS011;10147;16.402;102.848;2023-07-28T05:46:04;13.05;;;10.23;;
19971;SDS011;10147;16.402;102.848;2023-07-28T05:48:35;7.40;;;6.63;;
19971;SDS011;10147;16.402;102.848;2023-07-28T05:51:06;7.38;;;6.60;;
19971;SDS011;10147;16.402;102.848;2023-07-28T05:53:36;7.35;;;6.28;;
19971;SDS011;10147;16.402;102.848;2023-07-28T05:56:07;7.57;;;6.60;;
19971;SDS011;10147;16.402;102.848;2023-07-28T05:58:38;10.48;;;8.45;;
19971;SDS011;10147;16.402;102.848;2023-07-28T06:01:08;7.80;;;6.50;;
19971;SDS011;10147;16.402;102.848;2023-07-28T06:03:58;7.72;;;6.90;;
19971;SDS011;10147;16.402;102.848;2023-07-28T06:06:38;6.63;;;5.88;;
19971;SDS011;10147;16.402;102.848;2023-07-28T06:09:08;6.72;;;6.13;;
19971;SDS011;10147;16.402;102.848;2023-07-28T06:11:38;6.82;;;6.20;;
19971;SDS011;10147;16.402;102.848;2023-07-28T06:14:09;7.03;;;6.32;;
19971;SDS011;10147;16.402;102.848;2023-07-28T06:16:39;10.60;;;6.53;;
19971;SDS011;10147;16.402;102.848;2023-07-28T06:19:09;7.78;;;7.00;;
19971;SDS011;10147;16.402;102.848;2023-07-28T06:21:41;6.55;;;5.95;;
19971;SDS011;10147;16.402;102.848;2023-07-28T06:24:12;6.90;;;6.20;;
19971;SDS011;10147;16.402;102.848;2023-07-28T06:26:43;9.20;;;7.25;;
19971;SDS011;10147;16.402;102.848;2023-07-28T06:29:13;9.43;;;6.70;;
19971;SDS011;10147;16.402;102.848;2023-07-28T06:31:43;10.95;;;7.35;;
19971;SDS011;10147;16.402;102.848;2023-07-28T06:34:13;10.02;;;9.13;;
19971;SDS011;10147;16.402;102.848;2023-07-28T06:36:44;8.48;;;6.35;;
19971;SDS011;10147;16.402;102.848;2023-07-28T06:39:14;6.97;;;6.28;;
19971;SDS011;10147;16.402;102.848;2023-07-28T06:41:44;8.10;;;6.75;;
19971;SDS011;10147;16.402;102.848;2023-07-28T06:44:15;6.70;;;6.00;;
19971;SDS011;10147;16.402;102.848;2023-07-28T06:46:46;7.50;;;6.47;;
19971;SDS011;10147;16.402;102.848;2023-07-28T06:49:17;6.72;;;6.03;;
19971;SDS011;10147;16.402;102.848;2023-07-28T06:51:47;6.43;;;5.82;;
19971;SDS011;10147;16.402;102.848;2023-07-28T06:54:17;8.52;;;7.05;;
19971;SDS011;10147;16.402;102.848;2023-07-28T06:56:47;8.98;;;6.65;;
19971;SDS011;10147;16.402;102.848;2023-07-28T06:59:18;7.47;;;6.43;;
19971;SDS011;10147;16.402;102.848;2023-07-28T07:01:49;9.23;;;6.53;;
19971;SDS011;10147;16.402;102.848;2023-07-28T07:04:20;7.45;;;6.75;;
19971;SDS011;10147;16.402;102.848;2023-07-28T07:06:50;7.22;;;6.63;;
19971;SDS011;10147;16.402;102.848;2023-07-28T07:09:20;6.43;;;5.82;;
19971;SDS011;10147;16.402;102.848;2023-07-28T07:11:50;9.43;;;7.60;;
19971;SDS011;10147;16.402;102.848;2023-07-28T07:14:20;9.57;;;7.88;;
19971;SDS011;10147;16.402;102.848;2023-07-28T07:16:50;7.63;;;6.85;;
19971;SDS011;10147;16.402;102.848;2023-07-28T07:19:20;7.80;;;7.05;;
19971;SDS011;10147;16.402;102.848;2023-07-28T07:21:50;8.30;;;7.60;;
19971;SDS011;10147;16.402;102.848;2023-07-28T07:24:21;8.25;;;7.40;;
19971;SDS011;10147;16.402;102.848;2023-07-28T07:26:51;8.95;;;8.05;;
19971;SDS011;10147;16.402;102.848;2023-07-28T07:29:21;8.90;;;8.10;;
19971;SDS011;10147;16.402;102.848;2023-07-28T07:31:51;9.45;;;8.63;;
19971;SDS011;10147;16.402;102.848;2023-07-28T07:34:24;10.38;;;8.30;;
19971;SDS011;10147;16.402;102.848;2023-07-28T07:36:54;10.65;;;8.80;;
19971;SDS011;10147;16.402;102.848;2023-07-28T07:39:25;10.57;;;9.57;;
19971;SDS011;10147;16.402;102.848;2023-07-28T07:41:57;9.85;;;9.05;;
19971;SDS011;10147;16.402;102.848;2023-07-28T07:44:27;11.18;;;10.00;;
19971;SDS011;10147;16.402;102.848;2023-07-28T07:47:00;11.38;;;10.27;;
19971;SDS011;10147;16.402;102.848;2023-07-28T07:49:30;10.27;;;9.13;;
19971;SDS011;10147;16.402;102.848;2023-07-28T07:52:02;12.77;;;9.57;;
19971;SDS011;10147;16.402;102.848;2023-07-28T07:54:33;11.93;;;9.40;;
19971;SDS011;10147;16.402;102.848;2023-07-28T07:57:03;12.68;;;9.98;;
19971;SDS011;10147;16.402;102.848;2023-07-28T07:59:34;13.90;;;10.48;;
19971;SDS011;10147;16.402;102.848;2023-07-28T08:02:05;10.90;;;9.90;;
19971;SDS011;10147;16.402;102.848;2023-07-28T08:04:36;12.07;;;8.80;;
19971;SDS011;10147;16.402;102.848;2023-07-28T08:07:06;10.18;;;8.00;;
19971;SDS011;10147;16.402;102.848;2023-07-28T08:09:36;10.60;;;9.43;;
19971;SDS011;10147;16.402;102.848;2023-07-28T08:12:06;9.63;;;8.73;;
19971;SDS011;10147;16.402;102.848;2023-07-28T08:14:36;9.75;;;8.82;;
19971;SDS011;10147;16.402;102.848;2023-07-28T08:17:07;12.85;;;9.48;;
19971;SDS011;10147;16.402;102.848;2023-07-28T08:19:37;11.57;;;9.40;;
19971;SDS011;10147;16.402;102.848;2023-07-28T08:22:08;12.85;;;11.55;;
19971;SDS011;10147;16.402;102.848;2023-07-28T08:24:38;11.25;;;8.80;;
19971;SDS011;10147;16.402;102.848;2023-07-28T08:27:08;10.25;;;9.15;;
19971;SDS011;10147;16.402;102.848;2023-07-28T08:29:38;9.88;;;8.98;;
19971;SDS011;10147;16.402;102.848;2023-07-28T08:32:08;9.93;;;8.32;;
19971;SDS011;10147;16.402;102.848;2023-07-28T08:34:38;9.27;;;8.38;;
19971;SDS011;10147;16.402;102.848;2023-07-28T08:37:08;10.60;;;9.50;;
19971;SDS011;10147;16.402;102.848;2023-07-28T08:39:38;12.68;;;9.70;;
19971;SDS011;10147;16.402;102.848;2023-07-28T08:42:08;10.40;;;9.23;;
19971;SDS011;10147;16.402;102.848;2023-07-28T08:44:38;10.35;;;9.35;;
19971;SDS011;10147;16.402;102.848;2023-07-28T08:47:08;12.93;;;11.50;;
19971;SDS011;10147;16.402;102.848;2023-07-28T08:49:38;13.90;;;12.27;;
19971;SDS011;10147;16.402;102.848;2023-07-28T08:52:08;11.90;;;10.60;;
19971;SDS011;10147;16.402;102.848;2023-07-28T08:54:39;18.65;;;11.40;;
19971;SDS011;10147;16.402;102.848;2023-07-28T08:57:09;13.05;;;11.70;;
19971;SDS011;10147;16.402;102.848;2023-07-28T08:59:40;12.80;;;11.55;;
19971;SDS011;10147;16.402;102.848;2023-07-28T09:02:17;14.57;;;12.18;;
19971;SDS011;10147;16.402;102.848;2023-07-28T09:04:48;12.57;;;11.32;;
19971;SDS011;10147;16.402;102.848;2023-07-28T09:07:18;12.57;;;11.27;;
19971;SDS011;10147;16.402;102.848;2023-07-28T09:09:48;12.60;;;11.50;;
19971;SDS011;10147;16.402;102.848;2023-07-28T09:12:18;12.25;;;11.05;;
19971;SDS011;10147;16.402;102.848;2023-07-28T09:14:56;12.85;;;11.55;;
19971;SDS011;10147;16.402;102.848;2023-07-28T09:17:26;13.02;;;11.82;;
19971;SDS011;10147;16.402;102.848;2023-07-28T09:20:02;12.73;;;11.43;;
19971;SDS011;10147;16.402;102.848;2023-07-28T09:22:34;13.60;;;12.27;;
19971;SDS011;10147;16.402;102.848;2023-07-28T09:25:15;13.30;;;12.00;;
19971;SDS011;10147;16.402;102.848;2023-07-28T09:27:50;14.57;;;12.60;;
19971;SDS011;10147;16.402;102.848;2023-07-28T09:30:21;14.48;;;11.90;;
19971;SDS011;10147;16.402;102.848;2023-07-28T09:32:54;11.50;;;10.25;;
19971;SDS011;10147;16.402;102.848;2023-07-28T09:35:25;12.23;;;10.43;;
19971;SDS011;10147;16.402;102.848;2023-07-28T09:37:55;11.10;;;10.00;;
19971;SDS011;10147;16.402;102.848;2023-07-28T09:40:26;11.02;;;10.05;;
19971;SDS011;10147;16.402;102.848;2023-07-28T09:42:57;10.05;;;9.20;;
19971;SDS011;10147;16.402;102.848;2023-07-28T09:45:27;10.00;;;9.18;;
19971;SDS011;10147;16.402;102.848;2023-07-28T09:48:08;11.38;;;8.90;;
19971;SDS011;10147;16.402;102.848;2023-07-28T09:50:41;10.52;;;8.50;;
19971;SDS011;10147;16.402;102.848;2023-07-28T09:53:13;10.80;;;9.80;;
19971;SDS011;10147;16.402;102.848;2023-07-28T09:55:43;10.90;;;9.90;;
19971;SDS011;10147;16.402;102.848;2023-07-28T09:58:13;12.10;;;10.90;;
19971;SDS011;10147;16.402;102.848;2023-07-28T10:00:46;11.55;;;10.40;;
19971;SDS011;10147;16.402;102.848;2023-07-28T10:03:17;15.82;;;12.43;;
19971;SDS011;10147;16.402;102.848;2023-07-28T10:05:48;16.75;;;13.30;;
19971;SDS011;10147;16.402;102.848;2023-07-28T10:08:19;17.95;;;12.30;;
19971;SDS011;10147;16.402;102.848;2023-07-28T10:10:52;17.20;;;12.10;;
19971;SDS011;10147;16.402;102.848;2023-07-28T10:13:23;17.30;;;12.57;;
19971;SDS011;10147;16.402;102.848;2023-07-28T10:15:57;21.80;;;19.90;;
19971;SDS011;10147;16.402;102.848;2023-07-28T10:18:31;15.30;;;10.98;;
19971;SDS011;10147;16.402;102.848;2023-07-28T10:21:05;13.88;;;11.48;;
19971;SDS011;10147;16.402;102.848;2023-07-28T10:23:42;17.48;;;11.85;;
19971;SDS011;10147;16.402;102.848;2023-07-28T10:26:14;13.88;;;11.35;;
19971;SDS011;10147;16.402;102.848;2023-07-28T10:29:09;18.00;;;12.40;;
19971;SDS011;10147;16.402;102.848;2023-07-28T10:31:49;15.00;;;11.50;;
19971;SDS011;10147;16.402;102.848;2023-07-28T10:34:22;11.73;;;10.63;;
19971;SDS011;10147;16.402;102.848;2023-07-28T10:36:59;11.95;;;10.27;;
19971;SDS011;10147;16.402;102.848;2023-07-28T10:39:30;12.23;;;10.63;;
19971;SDS011;10147;16.402;102.848;2023-07-28T10:42:07;11.30;;;9.38;;
19971;SDS011;10147;16.402;102.848;2023-07-28T10:44:38;14.60;;;8.63;;
19971;SDS011;10147;16.402;102.848;2023-07-28T10:47:09;11.68;;;8.88;;
19971;SDS011;10147;16.402;102.848;2023-07-28T10:49:41;11.52;;;9.50;;
19971;SDS011;10147;16.402;102.848;2023-07-28T10:52:12;11.10;;;8.88;;
19971;SDS011;10147;16.402;102.848;2023-07-28T10:54:42;9.13;;;8.23;;
19971;SDS011;10147;16.402;102.848;2023-07-28T10:57:12;9.00;;;8.10;;
19971;SDS011;10147;16.402;102.848;2023-07-28T10:59:42;9.65;;;8.45;;
19971;SDS011;10147;16.402;102.848;2023-07-28T11:02:15;8.45;;;7.63;;
19971;SDS011;10147;16.402;102.848;2023-07-28T11:04:46;10.45;;;8.05;;
19971;SDS011;10147;16.402;102.848;2023-07-28T11:07:17;14.52;;;10.35;;
19971;SDS011;10147;16.402;102.848;2023-07-28T11:09:49;10.25;;;9.18;;
19971;SDS011;10147;16.402;102.848;2023-07-28T11:12:20;13.65;;;9.32;;
19971;SDS011;10147;16.402;102.848;2023-07-28T11:14:50;14.90;;;12.68;;
19971;SDS011;10147;16.402;102.848;2023-07-28T11:17:20;22.42;;;20.02;;
19971;SDS011;10147;16.402;102.848;2023-07-28T11:19:50;28.73;;;24.73;;
19971;SDS011;10147;16.402;102.848;2023-07-28T11:22:20;29.50;;;23.20;;
19971;SDS011;10147;16.402;102.848;2023-07-28T11:24:50;25.15;;;21.65;;
19971;SDS011;10147;16.402;102.848;2023-07-28T11:27:21;17.95;;;14.32;;
19971;SDS011;10147;16.402;102.848;2023-07-28T11:29:53;12.50;;;10.38;;
19971;SDS011;10147;16.402;102.848;2023-07-28T11:32:25;22.88;;;17.75;;
19971;SDS011;10147;16.402;102.848;2023-07-28T11:35:01;16.63;;;13.65;;
19971;SDS011;10147;16.402;102.848;2023-07-28T11:37:33;21.25;;;13.05;;
19971;SDS011;10147;16.402;102.848;2023-07-28T11:40:05;15.27;;;13.43;;
19971;SDS011;10147;16.402;102.848;2023-07-28T11:42:40;29.17;;;23.58;;
19971;SDS011;10147;16.402;102.848;2023-07-28T11:45:14;20.70;;;15.55;;
19971;SDS011;10147;16.402;102.848;2023-07-28T11:47:55;29.02;;;20.67;;
19971;SDS011;10147;16.402;102.848;2023-07-28T11:50:39;27.05;;;18.45;;
19971;SDS011;10147;16.402;102.848;2023-07-28T11:53:11;17.25;;;15.18;;
19971;SDS011;10147;16.402;102.848;2023-07-28T11:55:42;32.47;;;26.75;;
19971;SDS011;10147;16.402;102.848;2023-07-28T11:58:12;28.58;;;25.48;;
19971;SDS011;10147;16.402;102.848;2023-07-28T12:00:42;20.95;;;18.08;;
19971;SDS011;10147;16.402;102.848;2023-07-28T12:03:12;25.42;;;22.70;;
19971;SDS011;10147;16.402;102.848;2023-07-28T12:09:03;19.58;;;13.55;;
19971;SDS011;10147;16.402;102.848;2023-07-28T12:11:42;15.82;;;13.75;;
19971;SDS011;10147;16.402;102.848;2023-07-28T12:14:15;23.83;;;15.57;;
19971;SDS011;10147;16.402;102.848;2023-07-28T12:16:48;26.05;;;16.98;;
19971;SDS011;10147;16.402;102.848;2023-07-28T12:19:21;19.55;;;13.93;;
19971;SDS011;10147;16.402;102.848;2023-07-28T12:21:51;15.43;;;12.50;;
19971;SDS011;10147;16.402;102.848;2023-07-28T12:24:21;15.60;;;12.68;;
19971;SDS011;10147;16.402;102.848;2023-07-28T12:26:51;17.20;;;13.30;;
19971;SDS011;10147;16.402;102.848;2023-07-28T12:29:25;14.98;;;12.32;;
19971;SDS011;10147;16.402;102.848;2023-07-28T12:31:57;13.88;;;12.10;;
19971;SDS011;10147;16.402;102.848;2023-07-28T12:34:29;15.57;;;12.20;;
19971;SDS011;10147;16.402;102.848;2023-07-28T12:37:18;12.63;;;11.27;;
19971;SDS011;10147;16.402;102.848;2023-07-28T12:40:09;20.38;;;12.50;;
19971;SDS011;10147;16.402;102.848;2023-07-28T12:42:42;14.50;;;11.93;;
19971;SDS011;10147;16.402;102.848;2023-07-28T12:45:15;13.02;;;11.15;;
19971;SDS011;10147;16.402;102.848;2023-07-28T12:47:47;12.52;;;11.13;;
19971;SDS011;10147;16.402;102.848;2023-07-28T12:50:25;13.30;;;11.35;;
19971;SDS011;10147;16.402;102.848;2023-07-28T12:52:55;16.38;;;14.40;;
19971;SDS011;10147;16.402;102.848;2023-07-28T12:55:28;18.80;;;13.02;;
19971;SDS011;10147;16.402;102.848;2023-07-28T12:57:58;17.00;;;13.68;;
19971;SDS011;10147;16.402;102.848;2023-07-28T13:00:28;16.48;;;13.38;;
19971;SDS011;10147;16.402;102.848;2023-07-28T13:03:01;18.50;;;12.95;;
19971;SDS011;10147;16.402;102.848;2023-07-28T13:05:31;27.98;;;23.65;;
19971;SDS011;10147;16.402;102.848;2023-07-28T13:08:02;33.10;;;27.55;;
19971;SDS011;10147;16.402;102.848;2023-07-28T13:10:36;25.50;;;21.17;;
19971;SDS011;10147;16.402;102.848;2023-07-28T13:13:09;22.17;;;16.10;;
19971;SDS011;10147;16.402;102.848;2023-07-28T13:15:41;16.23;;;14.20;;
19971;SDS011;10147;16.402;102.848;2023-07-28T13:18:11;16.38;;;14.75;;
19971;SDS011;10147;16.402;102.848;2023-07-28T13:20:41;15.63;;;12.65;;
19971;SDS011;10147;16.402;102.848;2023-07-28T13:23:12;13.35;;;11.90;;
19971;SDS011;10147;16.402;102.848;2023-07-28T13:25:42;11.95;;;10.68;;
19971;SDS011;10147;16.402;102.848;2023-07-28T13:28:12;12.15;;;10.85;;
19971;SDS011;10147;16.402;102.848;2023-07-28T13:30:43;14.45;;;11.38;;
19971;SDS011;10147;16.402;102.848;2023-07-28T13:33:13;11.52;;;10.32;;
19971;SDS011;10147;16.402;102.848;2023-07-28T13:35:44;15.52;;;12.55;;
19971;SDS011;10147;16.402;102.848;2023-07-28T13:38:15;13.32;;;11.68;;
19971;SDS011;10147;16.402;102.848;2023-07-28T13:40:45;13.55;;;10.98;;
19971;SDS011;10147;16.402;102.848;2023-07-28T13:43:16;16.45;;;11.93;;
19971;SDS011;10147;16.402;102.848;2023-07-28T13:45:46;15.38;;;9.57;;
19971;SDS011;10147;16.402;102.848;2023-07-28T13:48:16;13.50;;;10.00;;
19971;SDS011;10147;16.402;102.848;2023-07-28T13:50:49;14.98;;;9.90;;
19971;SDS011;10147;16.402;102.848;2023-07-28T13:53:23;13.57;;;10.23;;
19971;SDS011;10147;16.402;102.848;2023-07-28T13:55:56;11.38;;;10.07;;
19971;SDS011;10147;16.402;102.848;2023-07-28T13:58:27;15.32;;;10.80;;
19971;SDS011;10147;16.402;102.848;2023-07-28T14:00:57;16.33;;;10.90;;
19971;SDS011;10147;16.402;102.848;2023-07-28T14:03:27;46.90;;;41.38;;
19971;SDS011;10147;16.402;102.848;2023-07-28T14:05:57;25.23;;;15.93;;
19971;SDS011;10147;16.402;102.848;2023-07-28T14:08:28;15.32;;;12.85;;
19971;SDS011;10147;16.402;102.848;2023-07-28T14:10:58;14.10;;;12.40;;
19971;SDS011;10147;16.402;102.848;2023-07-28T14:13:28;14.20;;;11.07;;
19971;SDS011;10147;16.402;102.848;2023-07-28T14:15:58;14.60;;;11.73;;
19971;SDS011;10147;16.402;102.848;2023-07-28T14:18:28;16.95;;;12.77;;
19971;SDS011;10147;16.402;102.848;2023-07-28T14:20:58;17.38;;;13.45;;
19971;SDS011;10147;16.402;102.848;2023-07-28T14:23:28;18.48;;;12.65;;
19971;SDS011;10147;16.402;102.848;2023-07-28T14:25:58;16.10;;;11.80;;
19971;SDS011;10147;16.402;102.848;2023-07-28T14:28:28;13.30;;;11.32;;
19971;SDS011;10147;16.402;102.848;2023-07-28T14:30:58;14.68;;;11.85;;
19971;SDS011;10147;16.402;102.848;2023-07-28T14:33:29;15.10;;;11.98;;
19971;SDS011;10147;16.402;102.848;2023-07-28T14:36:00;13.00;;;11.00;;
19971;SDS011;10147;16.402;102.848;2023-07-28T14:38:29;13.40;;;11.48;;
19971;SDS011;10147;16.402;102.848;2023-07-28T14:40:59;15.13;;;11.05;;
19971;SDS011;10147;16.402;102.848;2023-07-28T14:43:29;13.20;;;10.23;;